createdAt,value
2022-09-21T00:01:15.071Z,68.15
2022-09-21T00:03:43.692Z,67.76
2022-09-21T00:06:13.272Z,67.45
2022-09-21T00:08:41.256Z,67.68
2022-09-21T00:11:13.099Z,68.17
2022-09-21T00:13:42.199Z,67.74
2022-09-21T00:16:11.646Z,67.35
2022-09-21T00:18:40.142Z,67.87
2022-09-21T00:21:09.162Z,67.87
2022-09-21T00:23:37.564Z,68.06
2022-09-21T00:26:07.183Z,68.11
2022-09-21T00:28:35.222Z,68.05
2022-09-21T00:31:04.478Z,68.00
2022-09-21T00:33:34.075Z,67.84
2022-09-21T00:36:06.092Z,67.84
2022-09-21T00:38:34.107Z,67.70
2022-09-21T00:41:02.184Z,67.42
2022-09-21T00:43:30.042Z,67.26
2022-09-21T00:46:01.547Z,67.08
2022-09-21T00:48:29.863Z,66.80
2022-09-21T00:51:03.025Z,67.07
2022-09-21T00:53:32.100Z,67.12
2022-09-21T00:56:00.907Z,67.22
2022-09-21T00:58:30.370Z,67.63
2022-09-21T01:01:00.491Z,67.53
2022-09-21T01:03:29.726Z,67.27
2022-09-21T01:05:58.964Z,67.47
2022-09-21T01:08:27.741Z,67.10
2022-09-21T01:11:21.198Z,66.96
2022-09-21T01:13:57.091Z,66.88
2022-09-21T01:16:28.234Z,67.05
2022-09-21T01:19:01.101Z,67.27
2022-09-21T01:21:32.521Z,66.75
2022-09-21T01:24:42.092Z,66.67
2022-09-21T01:27:27.862Z,66.37
2022-09-21T01:29:59.927Z,66.50
2022-09-21T01:32:29.564Z,67.14
2022-09-21T01:35:01.328Z,67.03
2022-09-21T01:37:34.277Z,67.18
2022-09-21T01:40:05.010Z,67.09
2022-09-21T01:42:34.522Z,67.02
2022-09-21T01:45:07.169Z,68.71
2022-09-21T01:47:35.414Z,69.44
2022-09-21T01:50:04.468Z,69.80
2022-09-21T01:52:35.632Z,70.23
2022-09-21T01:55:08.014Z,70.54
2022-09-21T01:57:40.177Z,70.66
2022-09-21T02:00:10.904Z,70.63
2022-09-21T02:02:42.805Z,70.66
2022-09-21T02:05:11.605Z,70.79
2022-09-21T02:07:40.431Z,71.02
2022-09-21T02:10:10.112Z,70.93
2022-09-21T02:12:38.332Z,71.07
2022-09-21T02:15:06.564Z,70.96
2022-09-21T02:17:49.836Z,71.05
2022-09-21T02:20:20.939Z,71.13
2022-09-21T02:23:02.437Z,71.07
2022-09-21T02:25:38.479Z,71.37
2022-09-21T02:28:09.614Z,71.61
2022-09-21T02:30:38.194Z,71.68
2022-09-21T02:33:12.576Z,71.53
2022-09-21T02:35:41.173Z,71.52
2022-09-21T02:38:09.921Z,71.98
2022-09-21T02:40:38.278Z,72.10
2022-09-21T02:43:07.191Z,72.36
2022-09-21T02:45:36.215Z,72.54
2022-09-21T02:48:04.727Z,72.64
2022-09-21T02:50:35.211Z,72.56
2022-09-21T02:53:02.721Z,72.80
2022-09-21T02:55:30.225Z,72.82
2022-09-21T02:57:57.694Z,72.79
2022-09-21T03:00:25.158Z,72.70
2022-09-21T03:02:52.795Z,72.97
2022-09-21T03:05:20.288Z,72.93
2022-09-21T03:07:49.186Z,72.75
2022-09-21T03:10:17.431Z,72.89
2022-09-21T03:12:46.103Z,72.72
2022-09-21T03:15:14.547Z,72.78
2022-09-21T03:17:42.083Z,72.82
2022-09-21T03:20:10.405Z,72.78
2022-09-21T03:22:37.840Z,73.04
2022-09-21T03:25:09.186Z,73.09
2022-09-21T03:27:36.726Z,73.01
2022-09-21T03:30:04.544Z,73.14
2022-09-21T03:32:32.024Z,73.08
2022-09-21T03:34:59.431Z,72.84
2022-09-21T03:37:26.975Z,72.87
2022-09-21T03:39:54.423Z,73.04
2022-09-21T03:42:23.321Z,72.93
2022-09-21T03:44:50.797Z,73.10
2022-09-21T03:47:18.245Z,72.87
2022-09-21T03:49:45.699Z,73.03
2022-09-21T03:52:13.304Z,72.99
2022-09-21T03:54:40.813Z,73.00
2022-09-21T03:57:08.922Z,72.87
2022-09-21T03:59:37.770Z,72.80
2022-09-21T04:02:05.411Z,72.66
2022-09-21T04:04:32.815Z,72.82
2022-09-21T04:07:00.397Z,72.86
2022-09-21T04:09:27.842Z,72.67
2022-09-21T04:11:55.292Z,72.78
2022-09-21T04:14:23.358Z,72.99
2022-09-21T04:16:52.556Z,72.68
2022-09-21T04:19:21.040Z,72.91
2022-09-21T04:21:51.255Z,72.82
2022-09-21T04:24:19.289Z,72.78
2022-09-21T04:26:46.939Z,72.80
2022-09-21T04:29:14.517Z,72.87
2022-09-21T04:31:42.285Z,72.67
2022-09-21T04:34:11.687Z,72.78
2022-09-21T04:36:39.151Z,72.79
2022-09-21T04:39:07.162Z,72.78
2022-09-21T04:41:34.810Z,72.87
2022-09-21T04:44:02.524Z,72.62
2022-09-21T04:46:30.062Z,72.92
2022-09-21T04:48:57.719Z,72.72
2022-09-21T04:51:26.589Z,72.82
2022-09-21T04:53:54.205Z,73.05
2022-09-21T04:56:21.760Z,72.89
2022-09-21T04:58:49.224Z,72.96
2022-09-21T05:01:16.733Z,73.11
2022-09-21T05:03:44.297Z,72.86
2022-09-21T05:06:13.443Z,73.12
2022-09-21T05:08:59.795Z,73.08
2022-09-21T05:11:27.260Z,73.00
2022-09-21T05:13:54.835Z,73.15
2022-09-21T05:16:22.382Z,73.09
2022-09-21T05:18:49.869Z,72.99
2022-09-21T05:21:17.383Z,72.87
2022-09-21T05:23:46.262Z,73.14
2022-09-21T05:26:13.768Z,73.09
2022-09-21T05:28:41.529Z,72.99
2022-09-21T05:31:17.968Z,72.98
2022-09-21T05:33:48.066Z,72.99
2022-09-21T05:36:18.985Z,72.95
2022-09-21T05:38:48.337Z,72.86
2022-09-21T05:41:15.972Z,72.92
2022-09-21T05:43:43.702Z,73.14
2022-09-21T05:46:12.847Z,73.33
2022-09-21T05:48:41.964Z,73.16
2022-09-21T05:51:11.672Z,73.33
2022-09-21T05:53:44.922Z,72.97
2022-09-21T05:56:15.500Z,73.19
2022-09-21T05:58:44.585Z,73.43
2022-09-21T06:01:19.709Z,73.41
2022-09-21T06:03:49.451Z,73.22
2022-09-21T06:06:17.175Z,73.24
2022-09-21T06:08:44.642Z,73.21
2022-09-21T06:11:12.233Z,73.19
2022-09-21T06:13:41.957Z,73.30
2022-09-21T06:16:09.519Z,73.41
2022-09-21T06:18:38.123Z,73.08
2022-09-21T06:21:05.920Z,73.42
2022-09-21T06:23:33.566Z,73.52
2022-09-21T06:26:01.052Z,73.44
2022-09-21T06:28:29.681Z,73.71
2022-09-21T06:30:58.835Z,73.72
2022-09-21T06:33:26.561Z,73.73
2022-09-21T06:35:55.034Z,73.91
2022-09-21T06:38:22.666Z,73.96
2022-09-21T06:40:50.452Z,73.93
2022-09-21T06:43:18.024Z,73.71
2022-09-21T06:45:45.613Z,74.19
2022-09-21T06:48:14.476Z,74.00
2022-09-21T06:50:42.087Z,73.67
2022-09-21T06:53:09.604Z,73.77
2022-09-21T06:55:37.114Z,73.73
2022-09-21T06:58:05.216Z,73.85
2022-09-21T07:00:32.905Z,74.09
2022-09-21T07:03:00.584Z,74.36
2022-09-21T07:05:29.510Z,74.31
2022-09-21T07:08:00.447Z,74.73
2022-09-21T07:10:28.304Z,75.86
2022-09-21T07:12:55.826Z,75.18
2022-09-21T07:15:23.653Z,74.95
2022-09-21T07:17:53.200Z,74.51
2022-09-21T07:20:33.902Z,74.49
2022-09-21T07:23:01.756Z,75.02
2022-09-21T07:25:29.304Z,74.98
2022-09-21T07:27:56.734Z,75.48
2022-09-21T07:30:24.295Z,75.54
2022-09-21T07:32:51.796Z,75.43
2022-09-21T07:35:20.172Z,75.68
2022-09-21T07:37:48.995Z,75.28
2022-09-21T07:40:16.643Z,74.85
2022-09-21T07:42:44.854Z,75.00
2022-09-21T07:45:12.635Z,74.56
2022-09-21T07:47:40.149Z,74.91
2022-09-21T07:50:08.131Z,75.04
2022-09-21T07:52:35.779Z,75.12
2022-09-21T07:55:04.901Z,75.23
2022-09-21T07:57:49.738Z,74.96
2022-09-21T08:00:17.355Z,75.47
2022-09-21T08:02:47.632Z,75.06
2022-09-21T08:05:15.486Z,74.93
2022-09-21T08:07:42.969Z,74.52
2022-09-21T08:10:12.546Z,74.27
2022-09-21T08:12:40.086Z,75.04
2022-09-21T08:15:16.493Z,74.81
2022-09-21T08:17:52.995Z,74.97
2022-09-21T08:20:20.663Z,74.31
2022-09-21T08:22:48.235Z,78.39
2022-09-21T08:25:17.176Z,75.74
2022-09-21T08:27:44.718Z,74.72
2022-09-21T08:30:13.656Z,74.54
2022-09-21T08:32:50.918Z,82.62
2022-09-21T08:35:19.176Z,77.22
2022-09-21T08:37:46.681Z,75.62
2022-09-21T08:40:16.954Z,75.17
2022-09-21T08:42:50.823Z,75.04
2022-09-21T08:45:18.823Z,75.29
2022-09-21T08:47:46.803Z,76.61
2022-09-21T08:50:21.229Z,75.20
2022-09-21T08:52:48.702Z,74.92
2022-09-21T08:55:17.987Z,74.45
2022-09-21T08:57:47.089Z,74.05
2022-09-21T09:00:15.384Z,74.01
2022-09-21T09:02:47.157Z,73.31
2022-09-21T09:05:23.728Z,75.45
2022-09-21T09:07:59.941Z,75.21
2022-09-21T09:10:32.748Z,75.27
2022-09-21T09:13:04.308Z,73.37
2022-09-21T09:15:39.231Z,73.08
2022-09-21T09:18:09.458Z,73.61
2022-09-21T09:20:37.789Z,73.05
2022-09-21T09:23:07.021Z,73.00
2022-09-21T09:25:36.127Z,73.19
2022-09-21T09:28:07.111Z,72.38
2022-09-21T09:30:34.999Z,71.96
2022-09-21T09:33:03.526Z,72.01
2022-09-21T09:35:33.180Z,72.51
2022-09-21T09:38:01.617Z,73.92
2022-09-21T09:40:40.983Z,72.74
2022-09-21T09:43:10.112Z,72.30
2022-09-21T09:45:45.440Z,72.80
2022-09-21T09:48:30.806Z,71.92
2022-09-21T09:50:58.666Z,71.44
2022-09-21T09:53:26.604Z,70.82
2022-09-21T09:55:54.542Z,70.71
2022-09-21T09:58:23.952Z,69.89
2022-09-21T10:00:52.417Z,69.05
2022-09-21T10:03:20.475Z,69.34
2022-09-21T10:05:48.048Z,69.80
2022-09-21T10:08:29.183Z,69.72
2022-09-21T10:10:56.704Z,69.56
2022-09-21T10:13:26.980Z,69.67
2022-09-21T10:15:55.589Z,68.45
2022-09-21T10:18:23.759Z,68.79
2022-09-21T10:20:58.270Z,68.09
2022-09-21T10:23:25.964Z,68.37
2022-09-21T10:25:54.676Z,65.98
2022-09-21T10:28:22.303Z,67.23
2022-09-21T10:30:51.477Z,67.67
2022-09-21T10:33:20.435Z,67.89
2022-09-21T10:35:51.507Z,68.14
2022-09-21T10:38:22.747Z,67.57
2022-09-21T10:40:50.562Z,67.72
2022-09-21T10:43:25.102Z,66.62
2022-09-21T10:45:55.316Z,65.89
2022-09-21T10:48:23.554Z,64.45
2022-09-21T10:50:51.855Z,66.35
2022-09-21T10:53:21.324Z,66.52
2022-09-21T10:56:04.902Z,66.25
2022-09-21T10:58:39.134Z,66.45
2022-09-21T11:01:15.960Z,65.79
2022-09-21T11:03:46.287Z,65.01
2022-09-21T11:06:15.925Z,64.94
2022-09-21T11:08:45.404Z,65.07
2022-09-21T11:11:18.981Z,65.83
2022-09-21T11:13:47.729Z,65.79
2022-09-21T11:16:17.781Z,66.24
2022-09-21T11:18:47.389Z,65.78
2022-09-21T11:21:17.332Z,65.06
2022-09-21T11:23:48.124Z,64.61
2022-09-21T11:28:17.741Z,58.39
2022-09-21T11:31:11.844Z,60.19
2022-09-21T11:33:53.504Z,61.44
2022-09-21T11:36:29.502Z,61.17
2022-09-21T11:39:01.279Z,60.33
2022-09-21T11:41:54.967Z,60.07
2022-09-21T11:44:45.280Z,60.43
2022-09-21T11:47:34.449Z,60.26
2022-09-21T11:50:33.365Z,56.90
2022-09-21T11:53:20.484Z,58.61
2022-09-21T11:56:12.882Z,56.04
2022-09-21T11:58:45.133Z,56.93
2022-09-21T12:01:24.628Z,58.63
2022-09-21T12:04:04.485Z,55.85
2022-09-21T12:06:44.314Z,53.91
2022-09-21T12:09:34.395Z,52.14
2022-09-21T12:12:06.889Z,50.46
2022-09-21T12:17:16.332Z,50.03
2022-09-21T12:19:48.386Z,53.69
2022-09-21T12:22:19.519Z,52.47
2022-09-21T12:24:49.034Z,52.88
2022-09-21T12:27:24.462Z,51.25
2022-09-21T12:29:54.737Z,49.73
2022-09-21T12:32:27.024Z,50.00
2022-09-21T12:34:57.111Z,50.30
2022-09-21T12:37:28.055Z,50.63
2022-09-21T12:40:02.231Z,50.67
2022-09-21T12:42:34.508Z,52.78
2022-09-21T12:45:05.051Z,52.48
2022-09-21T12:47:42.772Z,51.34
2022-09-21T12:50:19.366Z,51.04
2022-09-21T12:52:47.236Z,51.74
2022-09-21T12:55:26.084Z,52.49
2022-09-21T12:58:15.211Z,54.33
2022-09-21T13:00:58.690Z,53.23
2022-09-21T13:03:32.100Z,52.31
2022-09-21T13:06:23.877Z,51.56
2022-09-21T13:08:51.903Z,51.74
2022-09-21T13:11:21.653Z,53.67
2022-09-21T13:13:52.848Z,52.06
2022-09-21T13:16:26.295Z,51.32
2022-09-21T13:18:59.053Z,50.91
2022-09-21T13:21:29.812Z,52.55
2022-09-21T13:23:58.934Z,52.24
2022-09-21T13:26:33.968Z,51.35
2022-09-21T13:29:07.787Z,48.71
2022-09-21T13:31:57.498Z,53.44
2022-09-21T13:34:32.618Z,52.61
2022-09-21T13:37:36.328Z,52.93
2022-09-21T13:40:40.190Z,52.98
2022-09-21T13:46:08.572Z,53.00
2022-09-21T13:48:37.338Z,51.93
2022-09-21T13:51:10.776Z,53.10
2022-09-21T13:53:41.985Z,52.36
2022-09-21T13:56:21.455Z,51.89
2022-09-21T13:58:52.786Z,53.25
2022-09-21T14:01:45.028Z,51.99
2022-09-21T14:04:20.842Z,52.61
2022-09-21T14:09:22.828Z,52.81
2022-09-21T14:11:57.493Z,52.48
2022-09-21T14:14:28.771Z,52.56
2022-09-21T14:16:58.644Z,52.73
2022-09-21T14:22:32.992Z,53.01
2022-09-21T14:25:27.277Z,54.66
2022-09-21T14:27:55.537Z,56.15
2022-09-21T14:30:25.066Z,55.99
2022-09-21T14:32:55.920Z,55.54
2022-09-21T14:35:28.152Z,56.86
2022-09-21T14:38:01.612Z,55.93
2022-09-21T14:40:33.674Z,56.50
2022-09-21T14:43:03.437Z,54.47
2022-09-21T14:45:42.468Z,57.14
2022-09-21T14:48:13.034Z,58.12
2022-09-21T14:50:44.857Z,55.56
2022-09-21T14:53:39.168Z,56.76
2022-09-21T14:56:22.444Z,54.29
2022-09-21T14:59:01.187Z,54.17
2022-09-21T15:01:41.321Z,53.54
2022-09-21T15:04:27.619Z,54.42
2022-09-21T15:07:21.014Z,54.70
2022-09-21T15:10:32.930Z,55.00
2022-09-21T15:13:07.100Z,53.13
2022-09-21T15:15:38.358Z,52.51
2022-09-21T15:18:17.872Z,51.45
2022-09-21T15:20:46.243Z,55.37
2022-09-21T15:23:19.289Z,53.98
2022-09-21T15:25:58.836Z,55.30
2022-09-21T15:28:28.298Z,51.56
2022-09-21T15:30:58.416Z,50.63
2022-09-21T15:34:07.772Z,49.83
2022-09-21T15:36:38.425Z,50.09
2022-09-21T15:39:06.685Z,51.22
2022-09-21T15:41:43.058Z,49.53
2022-09-21T15:44:15.880Z,52.32
2022-09-21T15:46:46.922Z,50.81
2022-09-21T15:49:21.966Z,52.61
2022-09-21T15:53:55.783Z,49.54
2022-09-21T15:56:25.778Z,51.40
2022-09-21T15:59:05.070Z,50.88
2022-09-21T16:01:32.778Z,51.83
2022-09-21T16:04:05.437Z,52.79
2022-09-21T16:06:37.887Z,51.32
2022-09-21T16:09:34.370Z,51.65
2022-09-21T16:12:02.462Z,52.11
2022-09-21T16:14:47.963Z,49.46
2022-09-21T16:17:24.730Z,49.81
2022-09-21T16:20:19.503Z,50.93
2022-09-21T16:22:49.016Z,51.33
2022-09-21T16:25:34.436Z,49.03
2022-09-21T16:28:03.816Z,49.05
2022-09-21T16:30:51.119Z,49.51
2022-09-21T16:33:41.017Z,48.98
2022-09-21T16:36:40.616Z,49.35
2022-09-21T16:39:15.524Z,49.62
2022-09-21T16:41:48.477Z,49.28
2022-09-21T16:44:20.777Z,49.45
2022-09-21T16:46:53.179Z,50.50
2022-09-21T16:49:24.805Z,51.03
2022-09-21T16:51:55.805Z,51.07
2022-09-21T16:54:25.167Z,51.92
2022-09-21T16:56:55.533Z,52.31
2022-09-21T16:59:23.362Z,52.32
2022-09-21T17:01:56.070Z,52.34
2022-09-21T17:04:25.971Z,53.87
2022-09-21T17:06:55.080Z,53.71
2022-09-21T17:09:29.152Z,55.31
2022-09-21T17:12:01.590Z,56.79
2022-09-21T17:14:35.225Z,57.53
2022-09-21T17:17:05.691Z,58.09
2022-09-21T17:19:33.608Z,58.40
2022-09-21T17:22:01.286Z,58.53
2022-09-21T17:24:49.365Z,58.70
2022-09-21T17:27:19.684Z,59.11
2022-09-21T17:29:49.891Z,59.55
2022-09-21T17:32:47.776Z,58.10
2022-09-21T17:35:18.559Z,58.61
2022-09-21T17:37:46.290Z,59.21
2022-09-21T17:40:15.405Z,59.67
2022-09-21T17:42:46.454Z,59.75
2022-09-21T17:45:19.092Z,60.35
2022-09-21T17:47:50.244Z,60.32
2022-09-21T17:50:24.190Z,60.39
2022-09-21T17:53:10.057Z,60.46
2022-09-21T17:55:39.165Z,61.01
2022-09-21T17:58:14.960Z,61.36
2022-09-21T18:00:50.372Z,61.63
2022-09-21T18:03:22.450Z,61.75
2022-09-21T18:05:52.744Z,61.89
2022-09-21T18:08:20.797Z,62.19
2022-09-21T18:10:56.876Z,62.37
2022-09-21T18:13:29.502Z,62.19
2022-09-21T18:16:06.323Z,62.69
2022-09-21T18:18:46.778Z,62.69
2022-09-21T18:21:18.245Z,62.82
2022-09-21T18:23:59.535Z,62.92
2022-09-21T18:26:27.520Z,63.56
2022-09-21T18:28:58.225Z,63.52
2022-09-21T18:31:44.939Z,63.80
2022-09-21T18:34:29.186Z,63.42
2022-09-21T18:37:00.370Z,63.95
2022-09-21T18:39:35.540Z,63.85
2022-09-21T18:42:12.832Z,63.94
2022-09-21T18:44:44.254Z,63.97
2022-09-21T18:47:16.275Z,64.20
2022-09-21T18:49:51.285Z,64.31
2022-09-21T18:52:32.161Z,64.54
2022-09-21T18:55:00.101Z,64.92
2022-09-21T18:57:32.271Z,64.69
2022-09-21T19:00:00.496Z,65.10
2022-09-21T19:02:29.219Z,64.77
2022-09-21T19:04:59.182Z,64.90
2022-09-21T19:07:30.769Z,64.75
2022-09-21T19:10:06.876Z,64.99
2022-09-21T19:12:48.264Z,65.33
2022-09-21T19:15:42.295Z,65.34
2022-09-21T19:18:20.106Z,65.32
2022-09-21T19:21:00.060Z,65.63
2022-09-21T19:23:45.259Z,65.76
2022-09-21T19:26:16.442Z,65.56
2022-09-21T19:28:55.500Z,65.51
2022-09-21T19:31:23.423Z,65.61
2022-09-21T19:33:51.799Z,65.34
2022-09-21T19:36:21.309Z,65.29
2022-09-21T19:38:49.766Z,65.38
2022-09-21T19:41:32.310Z,65.28
2022-09-21T19:44:07.333Z,65.71
2022-09-21T19:46:39.322Z,65.20
2022-09-21T19:49:13.896Z,65.51
2022-09-21T19:51:46.812Z,65.61
2022-09-21T19:54:33.832Z,65.42
2022-09-21T19:57:19.692Z,65.59
2022-09-21T19:59:48.336Z,65.50
2022-09-21T20:02:18.483Z,65.49
2022-09-21T20:04:50.750Z,65.57
2022-09-21T20:07:27.555Z,65.97
2022-09-21T20:10:06.515Z,65.75
2022-09-21T20:12:38.438Z,66.09
2022-09-21T20:15:12.914Z,65.55
2022-09-21T20:17:45.982Z,65.76
2022-09-21T20:20:17.942Z,65.59
2022-09-21T20:22:47.379Z,65.64
2022-09-21T20:25:21.748Z,65.49
2022-09-21T20:27:51.492Z,65.62
2022-09-21T20:30:22.230Z,65.63
2022-09-21T20:32:52.346Z,65.60
2022-09-21T20:35:21.957Z,65.98
2022-09-21T20:37:51.763Z,65.95
2022-09-21T20:40:20.535Z,65.79
2022-09-21T20:42:48.330Z,65.70
2022-09-21T20:45:16.235Z,65.82
2022-09-21T20:47:44.001Z,65.92
2022-09-21T20:50:13.449Z,66.18
2022-09-21T20:52:41.878Z,66.04
2022-09-21T20:55:13.412Z,65.97
2022-09-21T20:57:41.497Z,65.85
2022-09-21T21:00:11.222Z,65.67
2022-09-21T21:02:38.973Z,65.99
2022-09-21T21:05:07.986Z,65.69
2022-09-21T21:07:36.539Z,65.86
2022-09-21T21:10:04.713Z,65.76
2022-09-21T21:12:33.893Z,65.18
2022-09-21T21:15:01.626Z,65.63
2022-09-21T21:17:29.364Z,65.26
2022-09-21T21:19:57.230Z,65.09
2022-09-21T21:22:24.949Z,65.04
2022-09-21T21:24:52.805Z,65.02
2022-09-21T21:27:22.819Z,65.40
2022-09-21T21:29:52.869Z,65.57
2022-09-21T21:32:23.097Z,65.59
2022-09-21T21:34:51.216Z,65.47
2022-09-21T21:37:19.880Z,65.40
2022-09-21T21:39:47.708Z,65.38
2022-09-21T21:42:15.730Z,65.15
2022-09-21T21:44:43.726Z,65.42
2022-09-21T21:47:38.166Z,65.39
2022-09-21T21:50:00.760Z,65.36
2022-09-21T21:52:28.714Z,65.31
2022-09-21T21:54:56.371Z,65.54
2022-09-21T21:57:24.167Z,65.40
2022-09-21T21:59:52.002Z,65.43
2022-09-21T22:02:21.255Z,65.23
2022-09-21T22:04:49.064Z,65.33
2022-09-21T22:07:16.725Z,65.10
2022-09-21T22:09:44.652Z,65.36
2022-09-21T22:12:12.547Z,65.26
2022-09-21T22:14:40.411Z,65.13
2022-09-21T22:17:08.151Z,65.28
2022-09-21T22:19:37.932Z,64.96
2022-09-21T22:22:06.114Z,65.17
2022-09-21T22:24:33.782Z,65.20
2022-09-21T22:27:01.425Z,65.11
2022-09-21T22:29:29.141Z,65.17
2022-09-21T22:31:56.791Z,65.31
2022-09-21T22:34:24.490Z,64.98
2022-09-21T22:36:53.866Z,64.84
2022-09-21T22:39:21.562Z,64.67
2022-09-21T22:41:49.246Z,64.87
2022-09-21T22:44:17.255Z,64.90
2022-09-21T22:46:44.948Z,64.69
2022-09-21T22:49:12.635Z,64.79
2022-09-21T22:51:40.351Z,64.57
2022-09-21T22:54:09.438Z,64.94
2022-09-21T22:56:37.233Z,64.92
2022-09-21T22:59:06.060Z,64.47
2022-09-21T23:01:35.218Z,64.87
2022-09-21T23:04:05.055Z,64.52
2022-09-21T23:06:35.086Z,64.78
2022-09-21T23:09:05.161Z,64.79
2022-09-21T23:11:35.531Z,64.56
2022-09-21T23:14:03.592Z,64.67
2022-09-21T23:16:31.650Z,64.75
2022-09-21T23:18:59.625Z,64.45
2022-09-21T23:21:29.396Z,64.67
2022-09-21T23:23:59.729Z,64.77
2022-09-21T23:26:28.502Z,64.67
2022-09-21T23:28:59.316Z,64.69
2022-09-21T23:31:27.777Z,64.63
2022-09-21T23:33:57.217Z,64.78
2022-09-21T23:36:29.594Z,64.68
2022-09-21T23:38:57.658Z,64.79
2022-09-21T23:41:27.129Z,64.53
2022-09-21T23:43:55.386Z,64.53
2022-09-21T23:46:26.227Z,64.59
2022-09-21T23:48:54.090Z,64.79
2022-09-21T23:51:22.065Z,64.57
2022-09-21T23:53:49.878Z,64.71
2022-09-21T23:56:19.333Z,64.42
2022-09-21T23:58:48.082Z,64.40
